createdAt,value
2022-11-15T00:00:32.137Z,19.80
2022-11-15T00:03:21.842Z,19.80
2022-11-15T00:06:11.156Z,19.80
2022-11-15T00:09:02.616Z,19.80
2022-11-15T00:11:50.307Z,19.80
2022-11-15T00:14:37.831Z,19.80
2022-11-15T00:17:25.830Z,19.70
2022-11-15T00:20:13.807Z,19.80
2022-11-15T00:23:01.452Z,19.80
2022-11-15T00:25:57.566Z,19.80
2022-11-15T00:28:45.309Z,19.80
2022-11-15T00:31:32.985Z,19.70
2022-11-15T00:34:20.662Z,19.70
2022-11-15T00:37:09.399Z,19.70
2022-11-15T00:39:56.982Z,19.70
2022-11-15T00:42:46.032Z,19.70
2022-11-15T00:45:34.037Z,19.70
2022-11-15T00:48:21.654Z,19.70
2022-11-15T00:51:09.086Z,19.70
2022-11-15T00:53:56.815Z,19.70
2022-11-15T00:56:44.585Z,19.70
2022-11-15T00:59:33.509Z,19.70
2022-11-15T01:02:21.311Z,19.60
2022-11-15T01:05:10.196Z,19.60
2022-11-15T01:07:58.717Z,19.60
2022-11-15T01:10:46.533Z,19.60
2022-11-15T01:13:35.821Z,19.60
2022-11-15T01:16:24.898Z,19.60
2022-11-15T01:19:12.802Z,19.60
2022-11-15T01:22:00.514Z,19.60
2022-11-15T01:24:48.140Z,19.60
2022-11-15T01:27:35.777Z,19.60
2022-11-15T01:30:23.411Z,19.60
2022-11-15T01:33:12.424Z,19.60
2022-11-15T01:36:00.123Z,19.60
2022-11-15T01:38:47.801Z,19.60
2022-11-15T01:41:36.083Z,19.50
2022-11-15T01:44:44.977Z,19.60
2022-11-15T01:47:36.092Z,19.60
2022-11-15T01:50:29.279Z,19.50
2022-11-15T01:53:17.934Z,19.50
2022-11-15T01:56:08.938Z,19.50
2022-11-15T01:58:59.611Z,19.50
2022-11-15T02:01:47.593Z,19.50
2022-11-15T02:04:38.659Z,19.50
2022-11-15T02:07:27.920Z,19.50
2022-11-15T02:10:20.424Z,19.50
2022-11-15T02:13:08.231Z,19.50
2022-11-15T02:16:07.267Z,19.50
2022-11-15T02:19:02.126Z,19.50
2022-11-15T02:22:00.107Z,19.50
2022-11-15T02:25:05.547Z,19.50
2022-11-15T02:28:31.891Z,19.50
2022-11-15T02:31:29.770Z,19.40
2022-11-15T02:34:23.765Z,19.40
2022-11-15T02:37:19.431Z,19.40
2022-11-15T02:40:13.416Z,19.40
2022-11-15T02:43:28.003Z,19.40
2022-11-15T02:46:21.270Z,19.40
2022-11-15T02:49:10.911Z,19.40
2022-11-15T02:51:58.846Z,19.40
2022-11-15T02:54:56.411Z,19.40
2022-11-15T02:57:53.771Z,19.40
2022-11-15T03:00:47.951Z,19.40
2022-11-15T03:03:51.005Z,19.40
2022-11-15T03:06:47.086Z,19.40
2022-11-15T03:09:41.141Z,19.40
2022-11-15T03:12:35.440Z,19.40
2022-11-15T03:15:26.683Z,19.30
2022-11-15T03:18:21.897Z,19.40
2022-11-15T03:21:12.482Z,19.30
2022-11-15T03:24:07.850Z,19.30
2022-11-15T03:26:57.610Z,19.30
2022-11-15T03:29:50.357Z,19.30
2022-11-15T03:32:43.180Z,19.30
2022-11-15T03:35:34.607Z,19.30
2022-11-15T03:38:26.860Z,19.30
2022-11-15T03:41:22.541Z,19.30
2022-11-15T03:44:18.891Z,19.30
2022-11-15T03:47:12.294Z,19.30
2022-11-15T03:50:03.608Z,19.30
2022-11-15T03:52:52.382Z,19.30
2022-11-15T03:55:40.263Z,19.30
2022-11-15T03:58:29.506Z,19.30
2022-11-15T04:01:17.391Z,19.30
2022-11-15T04:04:04.927Z,19.30
2022-11-15T04:06:52.595Z,19.30
2022-11-15T04:10:00.377Z,19.30
2022-11-15T04:12:48.834Z,19.30
2022-11-15T04:15:38.405Z,19.20
2022-11-15T04:18:26.203Z,19.20
2022-11-15T04:21:31.260Z,19.20
2022-11-15T04:24:19.219Z,19.20
2022-11-15T04:27:06.752Z,19.20
2022-11-15T04:29:54.247Z,19.20
2022-11-15T04:32:43.318Z,19.20
2022-11-15T04:35:31.346Z,19.20
2022-11-15T04:38:18.543Z,19.20
2022-11-15T04:41:06.658Z,19.20
2022-11-15T04:43:54.927Z,19.20
2022-11-15T04:46:42.726Z,19.20
2022-11-15T04:49:31.886Z,19.20
2022-11-15T04:52:19.693Z,19.20
2022-11-15T04:55:08.415Z,19.20
2022-11-15T04:58:03.287Z,19.20
2022-11-15T05:00:51.117Z,19.20
2022-11-15T05:03:55.952Z,19.20
2022-11-15T05:06:45.355Z,19.20
2022-11-15T05:09:33.125Z,19.10
2022-11-15T05:12:20.594Z,19.20
2022-11-15T05:15:09.395Z,19.20
2022-11-15T05:18:01.306Z,19.30
2022-11-15T05:20:49.260Z,19.50
2022-11-15T05:23:38.857Z,20.00
2022-11-15T05:26:27.168Z,20.50
2022-11-15T05:29:14.909Z,20.70
2022-11-15T05:32:02.661Z,20.70
2022-11-15T05:34:51.134Z,20.80
2022-11-15T05:37:38.740Z,20.90
2022-11-15T05:40:28.643Z,21.10
2022-11-15T05:43:16.532Z,21.20
2022-11-15T05:46:06.719Z,21.10
2022-11-15T05:48:56.028Z,21.20
2022-11-15T05:51:47.358Z,21.20
2022-11-15T05:54:35.753Z,21.20
2022-11-15T05:57:26.253Z,21.30
2022-11-15T06:00:16.683Z,21.30
2022-11-15T06:03:04.175Z,21.30
2022-11-15T06:05:51.876Z,21.30
2022-11-15T06:08:39.449Z,21.30
2022-11-15T06:11:26.962Z,21.30
2022-11-15T06:14:15.999Z,21.30
2022-11-15T06:17:10.055Z,21.20
2022-11-15T06:19:58.998Z,21.00
2022-11-15T06:22:46.723Z,20.90
2022-11-15T06:25:34.495Z,20.80
2022-11-15T06:28:22.076Z,20.60
2022-11-15T06:31:13.250Z,20.60
2022-11-15T06:34:01.173Z,20.50
2022-11-15T06:36:49.051Z,20.40
2022-11-15T06:39:36.501Z,20.40
2022-11-15T06:42:24.079Z,20.30
2022-11-15T06:45:12.107Z,20.30
2022-11-15T06:48:01.526Z,20.20
2022-11-15T06:50:53.372Z,20.20
2022-11-15T06:53:41.079Z,20.20
2022-11-15T06:56:28.863Z,20.20
2022-11-15T06:59:16.982Z,20.20
2022-11-15T07:02:04.605Z,20.10
2022-11-15T07:04:53.711Z,20.10
2022-11-15T07:07:41.616Z,20.10
2022-11-15T07:10:29.465Z,20.10
2022-11-15T07:13:17.203Z,20.10
2022-11-15T07:16:05.817Z,20.00
2022-11-15T07:18:53.713Z,20.00
2022-11-15T07:21:42.971Z,20.00
2022-11-15T07:24:30.999Z,20.00
2022-11-15T07:27:18.630Z,20.00
2022-11-15T07:30:07.734Z,19.90
2022-11-15T07:32:56.458Z,19.90
2022-11-15T07:35:47.509Z,19.90
2022-11-15T07:38:42.479Z,19.80
2022-11-15T07:41:31.823Z,19.80
2022-11-15T07:44:19.909Z,19.80
2022-11-15T07:47:07.525Z,19.80
2022-11-15T07:49:55.105Z,19.80
2022-11-15T07:52:42.574Z,19.80
2022-11-15T07:55:31.839Z,19.80
2022-11-15T07:58:19.835Z,19.80
2022-11-15T08:01:08.096Z,19.70
2022-11-15T08:03:56.030Z,19.80
2022-11-15T08:06:43.843Z,19.70
2022-11-15T08:09:31.540Z,19.70
2022-11-15T08:12:21.183Z,19.80
2022-11-15T08:15:09.533Z,19.70
2022-11-15T08:17:58.571Z,19.70
2022-11-15T08:20:46.515Z,19.70
2022-11-15T08:23:34.268Z,19.70
2022-11-15T08:26:22.071Z,19.70
2022-11-15T08:29:11.049Z,19.70
2022-11-15T08:31:58.585Z,19.70
2022-11-15T08:34:46.551Z,19.70
2022-11-15T08:37:34.266Z,19.70
2022-11-15T08:40:22.141Z,19.70
2022-11-15T08:43:10.094Z,19.70
2022-11-15T08:46:00.270Z,19.70
2022-11-15T08:48:47.807Z,19.60
2022-11-15T08:51:35.549Z,19.70
2022-11-15T08:54:23.220Z,19.70
2022-11-15T08:57:11.273Z,19.70
2022-11-15T08:59:58.891Z,19.70
2022-11-15T09:02:48.009Z,19.60
2022-11-15T09:05:38.970Z,19.60
2022-11-15T09:11:34.750Z,19.60
2022-11-15T09:14:24.996Z,19.60
2022-11-15T09:17:12.637Z,19.60
2022-11-15T09:20:01.680Z,19.60
2022-11-15T09:22:49.404Z,19.60
2022-11-15T09:25:37.153Z,19.60
2022-11-15T09:28:24.912Z,19.60
2022-11-15T09:31:12.720Z,19.60
2022-11-15T09:34:00.740Z,19.60
2022-11-15T09:36:49.991Z,19.60
2022-11-15T09:39:37.878Z,19.60
2022-11-15T09:42:44.234Z,19.60
2022-11-15T09:45:37.908Z,19.60
2022-11-15T09:48:54.831Z,19.60
2022-11-15T09:51:48.735Z,19.60
2022-11-15T09:57:21.182Z,19.60
2022-11-15T10:00:30.945Z,19.60
2022-11-15T10:03:06.708Z,19.60
2022-11-15T10:05:41.121Z,19.60
2022-11-15T10:08:26.546Z,19.60
2022-11-15T10:11:30.486Z,19.60
2022-11-15T10:13:51.829Z,19.60
2022-11-15T10:16:49.751Z,19.60
2022-11-15T10:19:26.346Z,19.60
2022-11-15T10:22:06.288Z,19.60
2022-11-15T10:24:41.093Z,19.60
2022-11-15T10:27:14.442Z,19.60
2022-11-15T10:29:46.500Z,19.60
2022-11-15T10:32:16.975Z,19.60
2022-11-15T10:34:47.229Z,19.60
2022-11-15T10:37:17.011Z,19.60
2022-11-15T10:39:46.203Z,19.60
2022-11-15T10:42:27.760Z,19.60
2022-11-15T10:44:57.111Z,19.60
2022-11-15T10:47:28.926Z,19.60
2022-11-15T10:50:03.637Z,19.60
2022-11-15T10:52:34.108Z,19.60
2022-11-15T10:55:08.938Z,19.60
2022-11-15T10:57:41.664Z,19.50
2022-11-15T11:00:42.818Z,19.50
2022-11-15T11:06:11.486Z,19.60
2022-11-15T11:08:41.594Z,19.50
2022-11-15T11:11:11.360Z,19.50
2022-11-15T11:13:41.972Z,19.50
2022-11-15T11:16:39.148Z,19.50
2022-11-15T11:19:21.407Z,19.50
2022-11-15T11:21:58.400Z,19.50
2022-11-15T11:24:36.199Z,19.50
2022-11-15T11:27:22.897Z,19.50
2022-11-15T11:30:05.867Z,19.50
2022-11-15T11:32:58.251Z,19.50
2022-11-15T11:35:33.304Z,19.50
2022-11-15T11:38:24.390Z,19.50
2022-11-15T11:41:06.546Z,19.50
2022-11-15T11:43:44.327Z,19.50
2022-11-15T11:46:44.850Z,19.50
2022-11-15T11:49:21.135Z,19.50
2022-11-15T11:51:54.470Z,19.50
2022-11-15T11:54:28.896Z,19.50
2022-11-15T11:57:00.757Z,19.50
2022-11-15T11:59:39.702Z,19.50
2022-11-15T12:02:17.937Z,19.50
2022-11-15T12:04:53.401Z,19.50
2022-11-15T12:07:26.473Z,19.50
2022-11-15T12:10:00.992Z,19.50
2022-11-15T12:12:37.556Z,19.50
2022-11-15T12:15:14.928Z,19.60
2022-11-15T12:17:44.875Z,19.60
2022-11-15T12:20:21.130Z,19.50
2022-11-15T12:22:56.396Z,19.50
2022-11-15T12:25:31.965Z,19.60
2022-11-15T12:28:06.424Z,19.50
2022-11-15T12:30:47.055Z,19.50
2022-11-15T12:33:39.822Z,19.50
2022-11-15T12:36:13.574Z,19.50
2022-11-15T12:39:00.027Z,19.50
2022-11-15T12:41:30.665Z,19.50
2022-11-15T12:44:01.288Z,19.50
2022-11-15T12:47:24.510Z,19.50
2022-11-15T12:49:53.883Z,19.50
2022-11-15T12:52:24.572Z,19.50
2022-11-15T12:55:05.683Z,19.40
2022-11-15T12:57:45.591Z,19.50
2022-11-15T13:00:39.772Z,19.50
2022-11-15T13:03:29.399Z,19.50
2022-11-15T13:06:09.047Z,19.50
2022-11-15T13:08:49.600Z,19.50
2022-11-15T13:12:02.853Z,19.50
2022-11-15T13:14:50.942Z,19.50
2022-11-15T13:17:43.921Z,19.50
2022-11-15T13:20:34.091Z,19.40
2022-11-15T13:23:10.228Z,19.40
2022-11-15T13:26:11.718Z,19.40
2022-11-15T13:28:46.850Z,19.40
2022-11-15T13:31:25.707Z,19.40
2022-11-15T13:33:57.399Z,19.40
2022-11-15T13:36:29.925Z,19.40
2022-11-15T13:39:02.482Z,19.40
2022-11-15T13:41:33.804Z,19.40
2022-11-15T13:44:06.475Z,19.40
2022-11-15T13:46:36.341Z,19.40
2022-11-15T13:49:07.690Z,19.40
2022-11-15T13:51:41.783Z,19.40
2022-11-15T13:54:19.423Z,19.40
2022-11-15T13:56:50.901Z,19.30
2022-11-15T13:59:27.946Z,19.30
2022-11-15T14:01:59.088Z,19.30
2022-11-15T14:04:30.936Z,19.30
2022-11-15T14:07:02.149Z,19.30
2022-11-15T14:09:38.790Z,19.30
2022-11-15T14:12:30.320Z,19.30
2022-11-15T14:15:02.625Z,19.30
2022-11-15T14:17:45.612Z,19.30
2022-11-15T14:20:29.799Z,19.30
2022-11-15T14:23:00.093Z,19.30
2022-11-15T14:25:30.515Z,19.30
2022-11-15T14:28:34.751Z,19.30
2022-11-15T14:31:14.266Z,19.30
2022-11-15T14:33:44.092Z,19.30
2022-11-15T14:36:15.534Z,19.30
2022-11-15T14:38:45.715Z,19.30
2022-11-15T14:41:22.306Z,19.30
2022-11-15T14:43:51.978Z,19.30
2022-11-15T14:46:22.668Z,19.30
2022-11-15T14:48:51.888Z,19.30
2022-11-15T14:51:21.171Z,19.30
2022-11-15T14:53:50.815Z,19.30
2022-11-15T14:56:19.923Z,19.30
2022-11-15T14:58:49.028Z,19.30
2022-11-15T15:01:22.970Z,19.30
2022-11-15T15:03:53.148Z,19.30
2022-11-15T15:06:22.302Z,19.30
2022-11-15T15:08:52.097Z,19.30
2022-11-15T15:11:24.377Z,19.30
2022-11-15T15:13:53.863Z,19.20
2022-11-15T15:16:24.423Z,19.20
2022-11-15T15:18:53.776Z,19.30
2022-11-15T15:21:25.402Z,19.20
2022-11-15T15:23:56.248Z,19.20
2022-11-15T15:26:26.177Z,19.30
2022-11-15T15:28:55.420Z,19.20
2022-11-15T15:31:25.928Z,19.20
2022-11-15T15:33:55.128Z,19.20
2022-11-15T15:36:24.622Z,19.20
2022-11-15T15:38:53.811Z,19.20
2022-11-15T15:41:23.459Z,19.20
2022-11-15T15:43:52.711Z,19.20
2022-11-15T15:46:22.455Z,19.20
2022-11-15T15:48:53.086Z,19.20
2022-11-15T15:51:22.358Z,19.20
2022-11-15T15:53:52.602Z,19.20
2022-11-15T15:56:21.740Z,19.20
2022-11-15T15:58:50.919Z,19.30
2022-11-15T16:01:20.215Z,19.60
2022-11-15T16:03:49.555Z,19.80
2022-11-15T16:06:39.253Z,20.20
2022-11-15T16:09:15.147Z,20.50
2022-11-15T16:11:46.973Z,20.40
2022-11-15T16:14:16.174Z,20.40
2022-11-15T16:16:45.233Z,20.50
2022-11-15T16:19:14.534Z,20.50
2022-11-15T16:21:45.055Z,20.50
2022-11-15T16:24:14.356Z,20.50
2022-11-15T16:26:43.512Z,20.40
2022-11-15T16:29:12.952Z,20.30
2022-11-15T16:31:42.295Z,20.40
2022-11-15T16:34:11.714Z,20.50
2022-11-15T16:36:40.931Z,20.60
2022-11-15T16:39:15.965Z,20.60
2022-11-15T16:41:47.730Z,20.60
2022-11-15T16:44:16.958Z,20.50
2022-11-15T16:46:51.917Z,20.60
2022-11-15T16:49:23.413Z,20.70
2022-11-15T16:51:53.268Z,20.80
2022-11-15T16:54:23.871Z,20.80
2022-11-15T16:56:53.851Z,20.90
2022-11-15T16:59:23.010Z,20.80
2022-11-15T17:01:52.150Z,20.80
2022-11-15T17:04:22.863Z,20.70
2022-11-15T17:06:52.174Z,20.70
2022-11-15T17:09:24.942Z,20.60
2022-11-15T17:11:54.624Z,20.70
2022-11-15T17:14:24.288Z,20.70
2022-11-15T17:16:55.775Z,20.70
2022-11-15T17:19:24.934Z,20.60
2022-11-15T17:21:54.362Z,20.70
2022-11-15T17:24:25.105Z,20.70
2022-11-15T17:26:55.124Z,20.70
2022-11-15T17:29:24.266Z,20.70
2022-11-15T17:31:53.395Z,20.70
2022-11-15T17:34:22.694Z,20.70
2022-11-15T17:36:51.837Z,20.70
2022-11-15T17:39:21.085Z,20.80
2022-11-15T17:41:51.713Z,20.80
2022-11-15T17:44:21.085Z,20.80
2022-11-15T17:46:50.267Z,20.80
2022-11-15T17:49:19.395Z,20.80
2022-11-15T17:51:50.119Z,20.80
2022-11-15T17:54:19.550Z,20.80
2022-11-15T17:56:48.697Z,20.80
2022-11-15T17:59:21.550Z,20.90
2022-11-15T18:01:51.475Z,21.20
2022-11-15T18:04:21.241Z,21.30
2022-11-15T18:06:50.495Z,21.20
2022-11-15T18:09:20.319Z,21.20
2022-11-15T18:11:51.782Z,21.10
2022-11-15T18:14:22.537Z,21.00
2022-11-15T18:16:51.738Z,21.00
2022-11-15T18:19:21.015Z,20.90
2022-11-15T18:21:59.348Z,20.90
2022-11-15T18:24:30.379Z,20.90
2022-11-15T18:27:00.523Z,20.90
2022-11-15T18:29:31.246Z,20.90
2022-11-15T18:32:00.405Z,20.90
2022-11-15T18:34:32.610Z,21.00
2022-11-15T18:37:03.013Z,21.00
2022-11-15T18:39:32.653Z,21.00
2022-11-15T18:42:02.386Z,21.10
2022-11-15T18:44:33.342Z,21.10
2022-11-15T18:47:02.643Z,21.10
2022-11-15T18:49:32.030Z,21.10
2022-11-15T18:52:01.257Z,21.10
2022-11-15T18:54:31.686Z,21.10
2022-11-15T18:57:01.855Z,21.10
2022-11-15T18:59:32.658Z,21.10
2022-11-15T19:02:01.992Z,21.20
2022-11-15T19:04:31.265Z,21.10
2022-11-15T19:07:00.483Z,21.20
2022-11-15T19:09:32.941Z,21.20
2022-11-15T19:12:02.540Z,21.20
2022-11-15T19:14:33.249Z,21.20
2022-11-15T19:17:02.497Z,21.20
2022-11-15T19:19:33.059Z,21.20
2022-11-15T19:22:02.868Z,21.20
2022-11-15T19:24:32.027Z,21.20
2022-11-15T19:27:01.237Z,21.20
2022-11-15T19:29:30.529Z,21.30
2022-11-15T19:32:01.121Z,21.30
2022-11-15T19:34:30.587Z,21.30
2022-11-15T19:36:59.832Z,21.30
2022-11-15T19:39:28.947Z,21.30
2022-11-15T19:41:58.202Z,21.30
2022-11-15T19:44:27.573Z,21.30
2022-11-15T19:46:56.779Z,21.30
2022-11-15T19:49:27.590Z,21.30
2022-11-15T19:51:56.808Z,21.40
2022-11-15T19:54:26.125Z,21.40
2022-11-15T19:56:55.435Z,21.40
2022-11-15T19:59:24.659Z,21.40
2022-11-15T20:01:53.846Z,21.40
2022-11-15T20:04:23.189Z,21.40
2022-11-15T20:06:53.783Z,21.50
2022-11-15T20:09:23.005Z,21.50
2022-11-15T20:11:52.235Z,21.50
2022-11-15T20:14:21.564Z,21.50
2022-11-15T20:16:54.241Z,21.50
2022-11-15T20:19:23.909Z,21.60
2022-11-15T20:21:54.576Z,21.60
2022-11-15T20:24:23.908Z,21.50
2022-11-15T20:26:53.105Z,21.50
2022-11-15T20:29:22.329Z,21.60
2022-11-15T20:31:51.483Z,21.60
2022-11-15T20:34:21.420Z,21.60
2022-11-15T20:36:50.766Z,21.60
2022-11-15T20:39:21.331Z,21.60
2022-11-15T20:41:50.818Z,21.60
2022-11-15T20:44:20.228Z,21.60
2022-11-15T20:46:49.810Z,21.60
2022-11-15T20:49:19.065Z,21.60
2022-11-15T20:51:48.902Z,21.70
2022-11-15T20:54:18.264Z,21.70
2022-11-15T20:56:49.056Z,21.70
2022-11-15T20:59:18.506Z,21.70
2022-11-15T21:01:48.230Z,21.70
2022-11-15T21:04:17.815Z,21.80
2022-11-15T21:06:49.074Z,21.70
2022-11-15T21:09:35.860Z,21.80
2022-11-15T21:12:12.975Z,21.80
2022-11-15T21:14:44.180Z,21.80
2022-11-15T21:17:13.467Z,21.80
2022-11-15T21:19:42.892Z,21.80
2022-11-15T21:22:15.399Z,21.80
2022-11-15T21:24:44.827Z,21.80
2022-11-15T21:27:15.603Z,21.80
2022-11-15T21:29:45.860Z,21.70
2022-11-15T21:32:14.997Z,21.60
2022-11-15T21:34:44.186Z,21.50
2022-11-15T21:37:13.313Z,21.50
2022-11-15T21:39:42.535Z,21.40
2022-11-15T21:42:11.680Z,21.30
2022-11-15T21:44:42.350Z,21.30
2022-11-15T21:47:11.668Z,21.30
2022-11-15T21:49:40.742Z,21.30
2022-11-15T21:52:09.906Z,21.20
2022-11-15T21:54:41.198Z,21.20
2022-11-15T21:57:10.314Z,21.20
2022-11-15T22:00:00.554Z,21.20
2022-11-15T22:02:30.030Z,21.10
2022-11-15T22:04:59.209Z,21.10
2022-11-15T22:07:28.357Z,21.10
2022-11-15T22:09:58.950Z,21.00
2022-11-15T22:12:29.816Z,21.00
2022-11-15T22:14:59.162Z,21.00
2022-11-15T22:17:48.337Z,21.00
2022-11-15T22:23:08.474Z,20.90
2022-11-15T22:25:37.607Z,20.90
2022-11-15T22:28:06.982Z,20.90
2022-11-15T22:30:36.176Z,20.80
2022-11-15T22:33:05.463Z,20.80
2022-11-15T22:35:37.711Z,20.80
2022-11-15T22:38:07.239Z,20.80
2022-11-15T22:40:36.861Z,20.80
2022-11-15T22:43:06.920Z,20.70
2022-11-15T22:45:36.235Z,20.70
2022-11-15T22:48:05.475Z,20.70
2022-11-15T22:50:34.730Z,20.70
2022-11-15T22:53:05.345Z,20.70
2022-11-15T22:55:34.643Z,20.70
2022-11-15T22:58:03.787Z,20.60
2022-11-15T23:00:33.032Z,20.60
2022-11-15T23:03:02.379Z,20.60
2022-11-15T23:05:31.632Z,20.60
2022-11-15T23:08:00.788Z,20.60
2022-11-15T23:10:48.922Z,20.60
2022-11-15T23:13:18.286Z,20.60
2022-11-15T23:16:06.269Z,20.60
2022-11-15T23:18:36.740Z,20.50
2022-11-15T23:21:12.978Z,20.50
2022-11-15T23:23:41.314Z,20.50
2022-11-15T23:26:12.140Z,20.50
2022-11-15T23:28:41.315Z,20.50
2022-11-15T23:31:29.423Z,20.50
2022-11-15T23:33:58.616Z,20.40
2022-11-15T23:36:28.780Z,20.40
2022-11-15T23:38:58.102Z,20.40
2022-11-15T23:41:28.708Z,20.40
2022-11-15T23:43:57.962Z,20.40
2022-11-15T23:46:27.326Z,20.40
2022-11-15T23:48:56.706Z,20.40
2022-11-15T23:51:26.338Z,20.40
2022-11-15T23:53:55.939Z,20.40
2022-11-15T23:56:25.372Z,20.30
2022-11-15T23:58:56.103Z,20.40
